EDLN 210150Z AUTO 05005KT 020V080 9999 // OVC052/// 12/07 Q1026 EDLN 210120Z AUTO 04004KT 010V070 9999 // OVC051/// 12/08 Q1026 EDLN 210050Z AUTO 04005KT 010V070 9999 // OVC046/// 13/07 Q1026 EDLN 210020Z AUTO 02005KT 350V070 9999 // OVC041/// 13/07 Q1026 EDLN 202350Z AUTO 03004KT 9999 // OVC040/// 13/07 Q1026 EDLN 202320Z AUTO 35004KT 9999 // OVC039/// 13/07 Q1026 EDLN 202250Z AUTO 03004KT 9999 // OVC048/// 13/07 Q1025 EDLN 202220Z AUTO 04004KT 010V070 9999 // OVC049/// 13/07 Q1025 EDLN 202150Z AUTO 04004KT 360V080 9999 // OVC051/// 13/06 Q1025 EDLN 202120Z AUTO 04005KT 360V070 9999 // OVC050/// 13/06 Q1025 EDLN 202050Z AUTO 01004KT 9999 // OVC050/// 14/06 Q1025 EDLN 202020Z AUTO 02005KT 350V060 9999 // OVC050/// 14/06 Q1025 EDLN 201950Z AUTO 36005KT 320V040 9999 // OVC050/// 14/06 Q1024 EDLN 201920Z AUTO 02005KT 9999 // OVC051/// 14/06 Q1024 EDLN 201850Z AUTO 02005KT 350V050 9999 // OVC050/// 14/06 Q1024 EDLN 201820Z 02005KT 9999 BKN049 14/06 Q1023 EDLN 201750Z 04005KT 360V070 9999 SCT049 14/06 Q1023 EDLN 201720Z 03006KT CAVOK 15/06 Q1022 EDLN 201650Z 03007KT 9999 SCT049 15/06 Q1022 EDLN 201620Z 04007KT 360V070 9999 BKN049 16/07 Q1022 EDLN 201550Z 04007KT 010V070 CAVOK 16/07 Q1021 EDLN 201520Z 05006KT 010V100 9999 BKN048 16/08 Q1021 EDLN 201450Z 04004KT 340V090 9999 BKN048 17/08 Q1021 EDLN 201420Z 05004KT 360V110 9999 BKN048 17/08 Q1021 EDLN 201350Z 06003KT 020V120 9999 SCT044 17/07 Q1021 EDLN 201320Z 05004KT 010V130 9999 SCT041 16/07 Q1021 EDLN 201250Z 01005KT 330V060 9999 SCT041 16/08 Q1020 EDLN 201220Z 04005KT 350V120 9999 SCT043 17/08 Q1020 EDLN 201150Z 06005KT 360V120 9999 SCT042 16/08 Q1020 EDLN 201120Z 05007KT 360V080 9999 SCT032 16/08 Q1020 EDLN 201050Z 03006KT 340V080 9999 SCT033 SCT042 16/09 Q1020 EDLN 201020Z 07006KT 020V120 9999 FEW029 SCT042 16/10 Q1020 EDLN 200950Z 05005KT 010V090 9999 SCT042 15/09 Q1020 EDLN 200920Z 04005KT 360V100 9999 SCT042 15/10 Q1020 EDLN 200850Z 05006KT 020V090 9999 SCT041 14/10 Q1019 EDLN 200820Z 05006KT 010V090 9999 FEW040 13/09 Q1019 EDLN 200750Z 05004KT 020V080 9999 SCT039 12/10 Q1019 EDLN 200720Z 05003KT 9999 FEW037 11/09 Q1019 EDLN 200650Z 06003KT 030V140 CAVOK 10/09 Q1019 EDLN 200620Z VRB01KT CAVOK 08/08 Q1018 EDLN 200550Z VRB01KT CAVOK 07/07 Q1018 EDLN 200520Z AUTO VRB02KT 9999 // NCD 07/07 Q1018 EDLN 200450Z AUTO VRB01KT 9999 // NCD 07/06 Q1018 EDLN 200420Z AUTO 00000KT 9999 // NCD 07/06 Q1018 EDLN 200350Z AUTO VRB01KT 9999 // NCD 08/08 Q1018 EDLN 200320Z AUTO VRB02KT 9999 // NCD 09/08 Q1017 EDLN 200250Z AUTO 05003KT 9999 // NCD 08/08 Q1017 EDLN 200220Z AUTO 00000KT 9999 // NCD 08/07 Q1017 EDLN 200150Z AUTO VRB02KT 9999 // NCD 08/08 Q1017 EDLN 200120Z AUTO 00000KT 9999 // NCD 08/07 Q1017 EDLN 200050Z AUTO VRB02KT 9999 // NCD 09/08 Q1017 EDLN 200020Z AUTO VRB02KT 9999 // NCD 09/08 Q1017 EDLN 192350Z AUTO 03002KT 9999 // FEW051/// 10/08 Q1017 EDLN 192320Z AUTO 06003KT 030V100 9999 // FEW051/// 11/09 Q1017 EDLN 192250Z AUTO 08004KT 9999 // BKN052/// 11/08 Q1017 EDLN 192220Z AUTO 06004KT 030V090 9999 // BKN051/// 12/09 Q1017 EDLN 192150Z AUTO 06005KT 030V090 9999 // BKN051/// 13/09 Q1017 EDLN 192120Z AUTO 06006KT 9999 // OVC051/// 13/09 Q1017 EDLN 192050Z AUTO 06006KT 030V090 9999 // OVC050/// 14/09 Q1016 EDLN 192020Z AUTO 06006KT 030V090 9999 // OVC049/// 14/09 Q1016 EDLN 191950Z AUTO 06005KT 030V090 9999 // FEW044/// OVC052/// 14/10 Q1016 EDLN 191920Z AUTO 06006KT 020V080 9999 // OVC052/// 15/10 Q1016 EDLN 191850Z AUTO 05005KT 9999 // FEW052/// 15/10 Q1016 EDLN 191820Z 05005KT CAVOK 15/11 Q1015 EDLN 191750Z 05004KT CAVOK 16/11 Q1015 EDLN 191720Z 04004KT 350V060 CAVOK 16/11 Q1015 EDLN 191650Z 06005KT CAVOK 17/11 Q1015 EDLN 191620Z 07007KT 030V100 CAVOK 18/11 Q1015 EDLN 191550Z 06007KT 020V090 CAVOK 19/10 Q1015 EDLN 191520Z 05007KT 020V120 CAVOK 19/11 Q1015 EDLN 191450Z 07008KT 9999 SCT044 19/12 Q1015 EDLN 191420Z 06007KT 030V100 CAVOK 19/11 Q1014

METAR Messwerte

Zurück zur Übersicht

Ort
m ü. NN
Zeit Temperatur Taupunkt Rel.
Luftfeuchte
Luftdruck:
Altimeter
NN
Station
Wind in Beaufort
(Knoten)
Sichtweite
(Meter)
Wolken
(Meter über Grund)
Wettererscheinung
Mönchengladbach
38
Di 21.09. 03:5012771 %1026
1026
1021
NO 2 (5)
NNO - O
>= 10000Bedeckt (1600) 
Mönchengladbach
38
Di 21.09. 03:2012876 %1026
1026
1021
NO 2 (4)
N - ONO
>= 10000Bedeckt (1600) 
Mönchengladbach
38
Di 21.09. 02:5013767 %1026
1026
1021
NO 2 (5)
N - ONO
>= 10000Bedeckt (1400) 
Mönchengladbach
38
Di 21.09. 02:2013767 %1026
1026
1021
NNO 2 (5)
N - ONO
>= 10000Bedeckt (1200) 
Mönchengladbach
38
Di 21.09. 01:5013767 %1026
1026
1021
NNO 2 (4)>= 10000Bedeckt (1200) 
Mönchengladbach
38
Di 21.09. 01:2013767 %1026
1026
1021
N 2 (4)>= 10000Bedeckt (1200) 
Mönchengladbach
38
Di 21.09. 00:5013767 %1025
1025
1020
NNO 2 (4)>= 10000Bedeckt (1500) 
Mönchengladbach
38
Di 21.09. 00:2013767 %1025
1025
1020
NO 2 (4)
N - ONO
>= 10000Bedeckt (1500) 
Mönchengladbach
38
Mo 20.09. 23:5013662 %1025
1025
1020
NO 2 (4)
N - O
>= 10000Bedeckt (1600) 
Mönchengladbach
38
Mo 20.09. 23:2013662 %1025
1025
1020
NO 2 (5)
N - ONO
>= 10000Bedeckt (1500) 
Mönchengladbach
38
Mo 20.09. 22:5014658 %1025
1025
1020
N 2 (4)>= 10000Bedeckt (1500) 
Mönchengladbach
38
Mo 20.09. 22:2014658 %1025
1025
1020
NNO 2 (5)
N - ONO
>= 10000Bedeckt (1500) 
Mönchengladbach
38
Mo 20.09. 21:5014658 %1024
1024
1019
N 2 (5)
NW - NO
>= 10000Bedeckt (1500) 
Mönchengladbach
38
Mo 20.09. 21:2014658 %1024
1024
1019
NNO 2 (5)>= 10000Bedeckt (1600) 
Mönchengladbach
38
Mo 20.09. 20:5014658 %1024
1024
1019
NNO 2 (5)
N - NO
>= 10000Bedeckt (1500) 
Mönchengladbach
38
Mo 20.09. 20:2014658 %1023
1023
1018
NNO 2 (5)>= 10000Stark bewölkt (1500) 
Mönchengladbach
38
Mo 20.09. 19:5014658 %1023
1023
1018
NO 2 (5)
N - ONO
>= 10000Wolkig (1500) 
Mönchengladbach
38
Mo 20.09. 19:2015655 %1022
1022
1017
NNO 2 (6)>= 10000Nicht signifikant 
Mönchengladbach
38
Mo 20.09. 18:5015655 %1022
1022
1017
NNO 3 (7)>= 10000Wolkig (1500) 
Mönchengladbach
38
Mo 20.09. 18:2016755 %1022
1022
1017
NO 3 (7)
N - ONO
>= 10000Stark bewölkt (1500) 
Mönchengladbach
38
Mo 20.09. 17:5016755 %1021
1021
1016
NO 3 (7)
N - ONO
>= 10000Nicht signifikant 
Mönchengladbach
38
Mo 20.09. 17:2016859 %1021
1021
1016
NO 2 (6)
N - O
>= 10000Stark bewölkt (1500) 
Mönchengladbach
38
Mo 20.09. 16:5017855 %1021
1021
1016
NO 2 (4)
NNW - O
>= 10000Stark bewölkt (1500) 
Mönchengladbach
38
Mo 20.09. 16:2017855 %1021
1021
1016
NO 2 (4)
N - OSO
>= 10000Stark bewölkt (1500) 
Mönchengladbach
38
Mo 20.09. 15:5017752 %1021
1021
1016
ONO 2 (3)
NNO - OSO
>= 10000Wolkig (1300) 
Mönchengladbach
38
Mo 20.09. 15:2016755 %1021
1021
1016
NO 2 (4)
N - SO
>= 10000Wolkig (1200) 
Mönchengladbach
38
Mo 20.09. 14:5016859 %1020
1020
1015
N 2 (5)
NNW - ONO
>= 10000Wolkig (1200) 
Mönchengladbach
38
Mo 20.09. 14:2017855 %1020
1020
1015
NO 2 (5)
N - OSO
>= 10000Wolkig (1300) 
Mönchengladbach
38
Mo 20.09. 13:5016859 %1020
1020
1015
ONO 2 (5)
N - OSO
>= 10000Wolkig (1300) 
Mönchengladbach
38
Mo 20.09. 13:2016859 %1020
1020
1015
NO 3 (7)
N - O
>= 10000Wolkig (980) 
Mönchengladbach
38
Mo 20.09. 12:5016963 %1020
1020
1015
NNO 2 (6)
NNW - O
>= 10000Wolkig (1300)
Wolkig (1000)
 
Mönchengladbach
38
Mo 20.09. 12:20161068 %1020
1020
1015
ONO 2 (6)
NNO - OSO
>= 10000Wolkig (1300)
Leicht bewölkt (880)
 
Mönchengladbach
38
Mo 20.09. 11:5015967 %1020
1020
1015
NO 2 (5)
N - O
>= 10000Wolkig (1300) 
Mönchengladbach
38
Mo 20.09. 11:20151072 %1020
1020
1015
NO 2 (5)
N - O
>= 10000Wolkig (1300) 
Mönchengladbach
38
Mo 20.09. 10:50141077 %1019
1019
1014
NO 2 (6)
NNO - O
>= 10000Wolkig (1200) 
Mönchengladbach
38
Mo 20.09. 10:2013977 %1019
1019
1014
NO 2 (6)
N - O
>= 10000Leicht bewölkt (1200) 
Mönchengladbach
38
Mo 20.09. 09:50121088 %1019
1019
1014
NO 2 (4)
NNO - O
>= 10000Wolkig (1200) 
Mönchengladbach
38
Mo 20.09. 09:2011987 %1019
1019
1014
NO 2 (3)>= 10000Leicht bewölkt (1100) 
Mönchengladbach
38
Mo 20.09. 08:5010993 %1019
1019
1014
ONO 2 (3)
NNO - SO
>= 10000Nicht signifikant 
Mönchengladbach
38
Mo 20.09. 08:2088100 %1018
1018
1013
Uml 1 (1)>= 10000Nicht signifikant 
Mönchengladbach
38
Mo 20.09. 07:5077100 %1018
1018
1013
Uml 1 (1)>= 10000Nicht signifikant 
Mönchengladbach
38
Mo 20.09. 07:2077100 %1018
1018
1013
Uml 1 (2)>= 10000  
Mönchengladbach
38
Mo 20.09. 06:507693 %1018
1018
1013
Uml 1 (1)>= 10000  
Mönchengladbach
38
Mo 20.09. 06:207693 %1018
1018
1013
Windstill>= 10000  
Mönchengladbach
38
Mo 20.09. 05:5088100 %1018
1018
1013
Uml 1 (1)>= 10000  
Mönchengladbach
38
Mo 20.09. 05:209893 %1017
1017
1012
Uml 1 (2)>= 10000  
Mönchengladbach
38
Mo 20.09. 04:5088100 %1017
1017
1012
NO 2 (3)>= 10000  
Mönchengladbach
38
Mo 20.09. 04:208793 %1017
1017
1012
Windstill>= 10000  
Mönchengladbach
38
Mo 20.09. 03:5088100 %1017
1017
1012
Uml 1 (2)>= 10000  
Mönchengladbach
38
Mo 20.09. 03:208793 %1017
1017
1012
Windstill>= 10000  
Mönchengladbach
38
Mo 20.09. 02:509893 %1017
1017
1012
Uml 1 (2)>= 10000  
Mönchengladbach
38
Mo 20.09. 02:209893 %1017
1017
1012
Uml 1 (2)>= 10000  
Mönchengladbach
38
Mo 20.09. 01:5010887 %1017
1017
1012
NNO 1 (2)>= 10000Leicht bewölkt (1600) 
Mönchengladbach
38
Mo 20.09. 01:2011987 %1017
1017
1012
ONO 2 (3)
NNO - O
>= 10000Leicht bewölkt (1600) 
Mönchengladbach
38
Mo 20.09. 00:5011882 %1017
1017
1012
O 2 (4)>= 10000Stark bewölkt (1600) 
Mönchengladbach
38
Mo 20.09. 00:2012982 %1017
1017
1012
ONO 2 (4)
NNO - O
>= 10000Stark bewölkt (1600) 
Mönchengladbach
38
So 19.09. 23:5013977 %1017
1017
1012
ONO 2 (5)
NNO - O
>= 10000Stark bewölkt (1600) 
Mönchengladbach
38
So 19.09. 23:2013977 %1017
1017
1012
ONO 2 (6)>= 10000Bedeckt (1600) 
Mönchengladbach
38
So 19.09. 22:5014972 %1016
1016
1011
ONO 2 (6)
NNO - O
>= 10000Bedeckt (1500) 
Mönchengladbach
38
So 19.09. 22:2014972 %1016
1016
1011
ONO 2 (6)
NNO - O
>= 10000Bedeckt (1500) 
Mönchengladbach
38
So 19.09. 21:50141077 %1016
1016
1011
ONO 2 (5)
NNO - O
>= 10000Bedeckt (1600)
Leicht bewölkt (1300)
 
Mönchengladbach
38
So 19.09. 21:20151072 %1016
1016
1011
ONO 2 (6)
NNO - O
>= 10000Bedeckt (1600) 
Mönchengladbach
38
So 19.09. 20:50151072 %1016
1016
1011
NO 2 (5)>= 10000Leicht bewölkt (1600) 
Mönchengladbach
38
So 19.09. 20:20151177 %1015
1015
1010
NO 2 (5)>= 10000Nicht signifikant 
Mönchengladbach
38
So 19.09. 19:50161172 %1015
1015
1010
NO 2 (4)>= 10000Nicht signifikant 
Mönchengladbach
38
So 19.09. 19:20161172 %1015
1015
1010
NO 2 (4)
N - ONO
>= 10000Nicht signifikant 
Mönchengladbach
38
So 19.09. 18:50171168 %1015
1015
1010
ONO 2 (5)>= 10000Nicht signifikant 
Mönchengladbach
38
So 19.09. 18:20181164 %1015
1015
1010
ONO 3 (7)
NNO - O
>= 10000Nicht signifikant 
Mönchengladbach
38
So 19.09. 17:50191056 %1015
1015
1010
ONO 3 (7)
NNO - O
>= 10000Nicht signifikant 
Mönchengladbach
38
So 19.09. 17:20191160 %1015
1015
1010
NO 3 (7)
NNO - OSO
>= 10000Nicht signifikant 
Mönchengladbach
38
So 19.09. 16:50191264 %1015
1015
1010
ONO 3 (8)>= 10000Wolkig (1300) 
Mönchengladbach
38
So 19.09. 16:20191160 %1014
1014
1009
ONO 3 (7)
NNO - O
>= 10000Nicht signifikant 

Altimeter: Einstellung am Altimeter (Höhenmesser), die Höhe 0 muss auf diesen Luftdruckwert zeigen, damit das Gerät die Stationshöhe richtig anzeigt.

NN: Luftdruck reduziert auf "Normal Null", auf Meereshöhe, dieser von der Temperatur abhängige Wert wird bisweilen unkorrekt einfach als "Luftdruck" bezeichnet. Eigentlich nur eine fiktive Größe, die es erlaubt, Stationen auf unterschiedlichen Höhen miteinander zu vergleichen.

Station: Realer Luftdruck an der Station.